Time;durP1;ratioP1;P1;durP2;ratioP2;P2;SDS_P1;SDS_P2;PMS_P1;PMS_P2;Temp;Humidity;BMP_temperature;BMP_pressure;BME280_temperature;BME280_humidity;BME280_pressure;Samples;Min_cycle;Max_cycle;Signal;HPM_P1;HPM_P2
2021/05/03 00:02:19;;;;;;;27.27;17.63;;;13.00;99.90;;;;;;5052090;28;20398;-89
2021/05/03 00:04:45;;;;;;;29.15;18.58;;;13.00;99.90;;;;;;5052008;28;20033;-89
2021/05/03 00:07:11;;;;;;;27.67;17.70;;;12.90;99.90;;;;;;5051980;28;20064;-89
2021/05/03 00:09:36;;;;;;;30.58;18.27;;;12.80;99.90;;;;;;5053233;28;20029;-89
2021/05/03 00:12:02;;;;;;;27.35;18.20;;;12.90;99.90;;;;;;5053285;28;20048;-88
2021/05/03 00:14:28;;;;;;;29.55;19.33;;;12.80;99.90;;;;;;5052109;28;20079;-90
2021/05/03 00:16:54;;;;;;;32.78;18.95;;;12.90;99.90;;;;;;5053516;28;20049;-89
2021/05/03 00:19:20;;;;;;;30.75;18.30;;;12.80;99.90;;;;;;5051933;28;20060;-88
2021/05/03 00:21:45;;;;;;;40.67;19.50;;;12.80;99.90;;;;;;5051657;28;20132;-89
2021/05/03 00:24:11;;;;;;;28.08;19.13;;;12.80;99.90;;;;;;5051751;28;20105;-88
2021/05/03 00:26:37;;;;;;;32.20;18.63;;;12.80;99.90;;;;;;5051529;28;20512;-89
2021/05/03 00:29:03;;;;;;;30.25;18.38;;;12.80;99.90;;;;;;5051649;28;20039;-88
2021/05/03 00:31:29;;;;;;;34.47;18.80;;;12.80;99.90;;;;;;5051589;28;20041;-89
2021/05/03 00:34:02;;;;;;;30.48;19.15;;;12.80;99.90;;;;;;5051728;28;20486;-88
2021/05/03 00:36:28;;;;;;;39.78;19.95;;;12.80;99.90;;;;;;5052933;28;20036;-90
2021/05/03 00:38:54;;;;;;;34.42;19.13;;;12.70;99.90;;;;;;5052832;28;20150;-90
2021/05/03 00:41:19;;;;;;;30.35;18.55;;;12.70;99.90;;;;;;5051346;28;20136;-88
2021/05/03 00:43:45;;;;;;;32.72;19.35;;;12.70;99.90;;;;;;5052564;28;20036;-88
2021/05/03 00:46:11;;;;;;;32.13;19.77;;;12.70;99.90;;;;;;5051207;28;20052;-89
2021/05/03 00:48:37;;;;;;;32.58;19.30;;;12.70;99.90;;;;;;5051419;28;20033;-90
2021/05/03 00:51:02;;;;;;;31.15;18.63;;;12.70;99.90;;;;;;5051364;28;20052;-88
2021/05/03 00:53:28;;;;;;;32.35;18.02;;;12.70;99.90;;;;;;5051254;28;20629;-90
2021/05/03 00:55:54;;;;;;;35.70;19.90;;;12.70;99.90;;;;;;5051473;28;20053;-89
2021/05/03 00:58:20;;;;;;;29.85;18.58;;;12.70;99.90;;;;;;5051143;28;20100;-88
2021/05/03 01:00:46;;;;;;;33.30;19.30;;;12.70;99.90;;;;;;5051190;28;20045;-89
2021/05/03 01:03:11;;;;;;;35.28;20.35;;;12.70;99.90;;;;;;5051171;28;20044;-89
2021/05/03 01:05:37;;;;;;;36.55;21.17;;;12.70;99.90;;;;;;5051116;28;20056;-88
2021/05/03 01:08:03;;;;;;;32.33;20.52;;;12.70;99.90;;;;;;5051090;28;20466;-88
2021/05/03 01:10:30;;;;;;;36.60;20.00;;;12.70;99.90;;;;;;5051094;28;20128;-89
2021/05/03 01:12:57;;;;;;;34.20;21.20;;;12.70;99.90;;;;;;5051400;28;20065;-88
2021/05/03 01:15:24;;;;;;;34.40;20.17;;;12.70;99.90;;;;;;5051080;28;20029;-89
2021/05/03 01:18:02;;;;;;;31.17;20.35;;;12.70;99.90;;;;;;5051070;28;20075;-88
2021/05/03 01:20:31;;;;;;;34.03;19.40;;;12.70;99.90;;;;;;5052184;28;20033;-88
2021/05/03 01:22:58;;;;;;;33.42;19.85;;;12.70;99.90;;;;;;5051186;28;20040;-89
2021/05/03 01:25:28;;;;;;;30.08;20.70;;;12.60;99.90;;;;;;5051019;28;20446;-88
2021/05/03 01:27:54;;;;;;;30.17;19.42;;;12.60;99.90;;;;;;5051000;28;20056;-89
2021/05/03 01:30:21;;;;;;;39.42;20.35;;;12.60;99.90;;;;;;5051119;28;20448;-88
2021/05/03 01:32:46;;;;;;;30.63;19.88;;;12.60;99.90;;;;;;5051614;28;20041;-89
2021/05/03 01:35:15;;;;;;;30.30;20.40;;;12.60;99.90;;;;;;5056751;28;20076;-89
2021/05/03 01:37:41;;;;;;;33.53;19.75;;;12.60;99.90;;;;;;5056506;28;20094;-89
2021/05/03 01:40:09;;;;;;;37.33;20.17;;;12.60;99.90;;;;;;5054772;28;20512;-89
2021/05/03 01:42:37;;;;;;;29.27;17.45;;;12.60;99.90;;;;;;5054762;28;20069;-89
2021/05/03 01:45:04;;;;;;;31.73;18.55;;;12.60;99.90;;;;;;5054630;28;20067;-89
2021/05/03 01:47:32;;;;;;;31.00;17.92;;;12.60;99.90;;;;;;5054431;28;20131;-89
2021/05/03 01:49:57;;;;;;;25.55;17.58;;;12.60;99.90;;;;;;5054698;28;20521;-89
2021/05/03 01:52:24;;;;;;;35.80;20.25;;;12.60;99.90;;;;;;5054547;28;20072;-89
2021/05/03 01:54:51;;;;;;;31.65;19.10;;;12.60;99.90;;;;;;5055769;28;20041;-89
2021/05/03 01:57:18;;;;;;;28.33;18.52;;;12.60;99.90;;;;;;5054616;28;20037;-90
2021/05/03 01:59:44;;;;;;;29.58;19.05;;;12.50;99.90;;;;;;5054261;28;20044;-89
2021/05/03 02:02:10;;;;;;;27.67;18.23;;;12.50;99.90;;;;;;5054474;28;20049;-89
2021/05/03 02:04:36;;;;;;;30.13;19.10;;;12.50;99.90;;;;;;5054234;28;20035;-89
2021/05/03 02:07:02;;;;;;;30.67;20.05;;;12.50;99.90;;;;;;5054463;28;20049;-89
2021/05/03 02:09:28;;;;;;;33.58;20.67;;;12.50;99.90;;;;;;5054200;28;20064;-89
2021/05/03 02:11:53;;;;;;;30.83;19.48;;;12.50;99.90;;;;;;5054135;28;20052;-89
2021/05/03 02:14:19;;;;;;;31.27;18.83;;;12.50;99.90;;;;;;5054085;28;20041;-89
2021/05/03 02:16:45;;;;;;;35.78;18.98;;;12.50;99.90;;;;;;5054016;28;20047;-89
2021/05/03 02:19:13;;;;;;;32.80;19.30;;;12.40;99.90;;;;;;5054066;28;20029;-89
2021/05/03 02:21:39;;;;;;;28.38;18.33;;;12.40;99.90;;;;;;5053879;28;20055;-89
2021/05/03 02:24:48;;;;;;;34.67;18.38;;;12.40;99.90;;;;;;5054066;28;20496;-89
2021/05/03 02:30:56;;;;;;;27.60;20.02;;;12.40;99.90;;;;;;5055257;28;20045;-89
2021/05/03 02:33:38;;;;;;;29.85;19.35;;;12.40;99.90;;;;;;5055151;28;20045;-89
2021/05/03 02:36:33;;;;;;;30.42;19.42;;;12.30;99.90;;;;;;5055240;28;20037;-89
2021/05/03 02:39:22;;;;;;;31.40;19.00;;;12.40;99.90;;;;;;5053772;28;20486;-89
2021/05/03 02:42:00;;;;;;;27.65;16.35;;;12.30;99.90;;;;;;5053503;28;20509;-89
2021/05/03 02:44:26;;;;;;;28.80;19.52;;;12.40;99.90;;;;;;5053360;28;20043;-89
2021/05/03 02:47:30;;;;;;;31.02;20.30;;;12.30;99.90;;;;;;5055118;28;20049;-90
2021/05/03 02:50:14;;;;;;;34.08;21.13;;;12.40;99.90;;;;;;5017958;28;20051;-89
2021/05/03 02:52:41;;;;;;;34.33;19.13;;;12.40;99.90;;;;;;5053335;28;20033;-89
2021/05/03 02:55:21;;;;;;;26.27;17.73;;;12.40;99.90;;;;;;5053369;28;20048;-89
2021/05/03 02:57:51;;;;;;;30.88;19.10;;;12.40;99.90;;;;;;5053351;28;20068;-90
2021/05/03 03:00:21;;;;;;;28.83;19.08;;;12.40;99.90;;;;;;5053082;28;20029;-89
2021/05/03 03:02:47;;;;;;;33.65;19.45;;;12.50;99.90;;;;;;5053335;28;20405;-89
2021/05/03 03:05:13;;;;;;;33.75;21.38;;;12.50;99.90;;;;;;5053193;28;20033;-89
2021/05/03 03:08:02;;;;;;;31.38;20.25;;;12.50;99.90;;;;;;5052844;28;20183;-89
2021/05/03 03:10:31;;;;;;;31.08;18.95;;;12.60;99.90;;;;;;5053053;28;20421;-89
2021/05/03 03:13:08;;;;;;;23.58;17.42;;;12.60;99.90;;;;;;5053163;28;20068;-89
2021/05/03 03:15:49;;;;;;;26.48;17.50;;;12.60;99.90;;;;;;5054193;28;20068;-89
2021/05/03 03:22:16;;;;;;;27.58;17.90;;;12.80;99.90;;;;;;5053599;28;20660;-89
2021/05/03 03:25:12;;;;;;;26.80;17.48;;;12.90;99.90;;;;;;5052427;28;20418;-89
2021/05/03 03:27:38;;;;;;;29.38;16.92;;;13.00;99.90;;;;;;5052654;28;20107;-89
2021/05/03 03:30:08;;;;;;;30.40;17.27;;;13.10;99.90;;;;;;5052779;28;20037;-90
2021/05/03 03:33:01;;;;;;;25.48;16.27;;;13.20;99.90;;;;;;5052672;28;20087;-89
2021/05/03 03:35:28;;;;;;;26.75;17.75;;;13.20;99.90;;;;;;5053843;28;20110;-89
2021/05/03 03:38:06;;;;;;;23.13;16.63;;;13.30;99.90;;;;;;5052812;28;20075;-89
2021/05/03 03:41:12;;;;;;;30.67;17.80;;;13.40;99.90;;;;;;5053438;28;20108;-89
2021/05/03 03:44:06;;;;;;;24.52;17.63;;;13.40;99.90;;;;;;5053448;28;20041;-88
2021/05/03 03:46:58;;;;;;;24.80;18.50;;;13.50;99.90;;;;;;5053133;28;20037;-89
2021/05/03 03:49:56;;;;;;;31.67;20.10;;;13.70;99.90;;;;;;5049714;28;20486;-90
2021/05/03 03:52:34;;;;;;;27.10;19.13;;;13.80;99.90;;;;;;5052449;28;20041;-89
2021/05/03 03:55:46;;;;;;;27.30;17.48;;;13.80;99.90;;;;;;5052363;28;20061;-90
2021/05/03 03:58:30;;;;;;;23.30;17.10;;;14.00;99.90;;;;;;5052082;28;20041;-89
2021/05/03 04:01:06;;;;;;;25.92;17.83;;;14.20;99.90;;;;;;5052139;28;20060;-89
2021/05/03 04:04:00;;;;;;;34.15;18.63;;;14.30;99.90;;;;;;5052271;28;20387;-89
2021/05/03 04:06:50;;;;;;;25.30;18.00;;;14.50;99.90;;;;;;5052375;28;20045;-89
2021/05/03 04:09:34;;;;;;;25.38;16.90;;;14.80;99.90;;;;;;5052882;28;20041;-90
2021/05/03 04:26:41;;;;;;;14.55;9.18;;;16.10;99.90;;;;;;5053254;28;20040;-89
2021/05/03 04:29:07;;;;;;;13.82;8.55;;;16.30;99.90;;;;;;5051542;28;20082;-90
2021/05/03 04:31:51;;;;;;;13.38;9.02;;;16.50;99.90;;;;;;5051593;28;20118;-89
2021/05/03 04:34:16;;;;;;;11.07;8.55;;;16.60;99.90;;;;;;5051850;28;20032;-89
2021/05/03 04:36:42;;;;;;;13.85;7.85;;;16.70;99.90;;;;;;5053718;28;20041;-90
2021/05/03 04:39:31;;;;;;;10.63;6.93;;;16.80;99.90;;;;;;5061531;28;20037;-89
2021/05/03 04:42:48;;;;;;;9.05;7.03;;;16.90;99.90;;;;;;5064976;28;20402;-89
2021/05/03 04:45:15;;;;;;;10.32;6.78;;;17.00;99.90;;;;;;5040141;28;20407;-89
2021/05/03 04:48:03;;;;;;;9.27;6.45;;;17.10;99.90;;;;;;5054676;28;20124;-89
2021/05/03 04:50:30;;;;;;;10.27;6.15;;;17.20;99.90;;;;;;5052803;28;20056;-90
2021/05/03 04:52:56;;;;;;;8.32;6.03;;;17.30;99.90;;;;;;5051861;28;20490;-89
2021/05/03 04:55:56;;;;;;;;;;;;;;;;;;;;;
2021/05/03 04:58:25;;;;;;;7.43;5.75;;;17.40;99.90;;;;;;5052536;28;20037;-89
2021/05/03 05:00:54;;;;;;;7.45;5.20;;;17.60;99.90;;;;;;5051360;28;20029;-89
2021/05/03 05:04:00;;;;;;;6.18;5.00;;;17.60;99.90;;;;;;5052408;28;20136;-90
2021/05/03 05:06:31;;;;;;;5.68;4.55;;;17.70;99.90;;;;;;5051107;28;20429;-90
2021/05/03 05:09:10;;;;;;;5.25;4.70;;;17.60;99.90;;;;;;5055474;28;20447;-90
2021/05/03 05:11:45;;;;;;;4.50;4.05;;;17.70;99.90;;;;;;5055234;28;20033;-89
2021/05/03 05:14:34;;;;;;;;;;;;;;;;;;;;;
2021/05/03 05:17:06;;;;;;;6.40;5.00;;;18.00;99.90;;;;;;5057548;28;20474;-89
2021/05/03 05:20:01;;;;;;;5.82;4.85;;;18.10;99.90;;;;;;5054994;28;20059;-90
2021/05/03 05:22:32;;;;;;;5.28;4.60;;;18.10;99.90;;;;;;5054709;28;20119;-89
2021/05/03 05:25:13;;;;;;;5.47;4.43;;;18.10;99.90;;;;;;5055262;28;20033;-90
2021/05/03 05:27:39;;;;;;;5.88;4.57;;;18.00;99.90;;;;;;5055061;28;20040;-89
2021/05/03 05:30:15;;;;;;;4.75;4.20;;;17.90;99.90;;;;;;5054944;28;20040;-90
2021/05/03 05:32:41;;;;;;;4.90;4.32;;;17.90;99.90;;;;;;5055057;28;20047;-90
2021/05/03 05:35:08;;;;;;;5.15;3.88;;;17.90;99.90;;;;;;5056418;28;20037;-89
2021/05/03 05:37:34;;;;;;;7.10;4.13;;;17.80;99.90;;;;;;5055073;28;20067;-90
2021/05/03 05:40:00;;;;;;;5.35;3.65;;;17.90;99.90;;;;;;5056988;28;20537;-89
2021/05/03 05:42:26;;;;;;;7.07;3.45;;;17.80;99.90;;;;;;5057592;28;20124;-90
2021/05/03 05:44:52;;;;;;;3.63;3.28;;;17.80;99.90;;;;;;5056205;28;20127;-89
2021/05/03 05:47:18;;;;;;;3.50;3.00;;;17.80;99.90;;;;;;5055299;28;20053;-90
2021/05/03 05:49:43;;;;;;;3.92;3.60;;;17.70;99.90;;;;;;5056150;28;20405;-90
2021/05/03 05:52:09;;;;;;;7.18;3.72;;;17.60;99.90;;;;;;5056159;28;20044;-89
2021/05/03 05:54:35;;;;;;;5.28;3.83;;;17.60;99.90;;;;;;5055787;28;20041;-90
2021/05/03 05:57:01;;;;;;;4.05;3.65;;;17.60;99.90;;;;;;5055503;28;20044;-88
2021/05/03 05:59:26;;;;;;;4.75;3.45;;;17.50;99.90;;;;;;5056396;28;20500;-90
2021/05/03 06:01:52;;;;;;;3.55;3.25;;;17.40;99.90;;;;;;5053447;28;20057;-89
2021/05/03 06:04:18;;;;;;;4.05;3.67;;;17.30;99.90;;;;;;5037861;28;20505;-89
2021/05/03 06:06:44;;;;;;;4.22;3.38;;;17.30;99.90;;;;;;5036692;28;20119;-89
2021/05/03 06:09:10;;;;;;;4.00;3.60;;;17.10;99.90;;;;;;5038584;28;20163;-89
2021/05/03 06:11:36;;;;;;;4.00;3.60;;;17.00;99.90;;;;;;5041671;28;20107;-88
2021/05/03 06:14:02;;;;;;;5.72;3.95;;;17.00;99.90;;;;;;5054402;28;20033;-88
2021/05/03 06:16:28;;;;;;;4.90;3.83;;;16.80;99.90;;;;;;5038831;28;20049;-88
2021/05/03 06:18:55;;;;;;;5.25;3.97;;;16.70;99.90;;;;;;5036802;28;20052;-89
2021/05/03 06:21:21;;;;;;;4.18;3.78;;;16.60;99.90;;;;;;5053292;28;20039;-88
2021/05/03 06:23:46;;;;;;;6.93;4.03;;;16.60;99.90;;;;;;5037175;28;20033;-88
2021/05/03 06:26:12;;;;;;;4.90;3.70;;;16.60;99.90;;;;;;5036360;28;20052;-88
2021/05/03 06:28:38;;;;;;;5.70;4.32;;;16.60;99.90;;;;;;5036213;28;20044;-87
2021/05/03 06:31:04;;;;;;;7.07;4.22;;;16.60;99.90;;;;;;5036457;28;20076;-88
2021/05/03 06:33:30;;;;;;;5.70;4.05;;;16.50;99.90;;;;;;5049457;28;20068;-90
2021/05/03 06:35:56;;;;;;;4.75;4.05;;;16.50;99.90;;;;;;5057789;28;20413;-90
2021/05/03 06:38:22;;;;;;;4.25;3.85;;;16.40;99.90;;;;;;5054980;28;20127;-90
2021/05/03 06:40:51;;;;;;;5.68;4.57;;;16.40;99.90;;;;;;5054824;28;20398;-89
2021/05/03 06:43:24;;;;;;;6.63;3.70;;;16.40;99.90;;;;;;5056767;28;20036;-88
2021/05/03 06:45:58;;;;;;;4.28;3.65;;;16.40;99.90;;;;;;5055735;28;20044;-90
2021/05/03 06:48:27;;;;;;;5.25;4.07;;;16.40;99.90;;;;;;5068318;22;20052;-89
2021/05/03 06:50:53;;;;;;;5.40;3.92;;;16.50;99.90;;;;;;5053278;28;20124;-90
2021/05/03 06:54:11;;;;;;;4.80;3.50;;;16.40;99.90;;;;;;5035195;28;20095;-90
2021/05/03 06:56:40;;;;;;;3.85;3.45;;;16.50;99.90;;;;;;5033919;28;20042;-90
2021/05/03 06:59:06;;;;;;;5.05;3.42;;;16.70;99.90;;;;;;5034777;28;20035;-90
2021/05/03 07:01:35;;;;;;;6.78;3.38;;;16.80;99.90;;;;;;5033323;28;20124;-90
2021/05/03 07:04:11;;;;;;;4.28;3.05;;;16.90;99.90;;;;;;5033767;28;20034;-90
2021/05/03 07:06:46;;;;;;;3.80;3.10;;;17.00;99.90;;;;;;5033205;28;20052;-90
2021/05/03 07:09:11;;;;;;;3.50;3.20;;;17.20;99.90;;;;;;5034777;28;20107;-88
2021/05/03 07:11:39;;;;;;;3.53;3.22;;;17.40;99.90;;;;;;5032973;28;20084;-89
2021/05/03 07:14:07;;;;;;;3.33;2.83;;;17.70;99.90;;;;;;5032988;28;20561;-90
2021/05/03 07:16:34;;;;;;;4.85;2.63;;;17.90;99.90;;;;;;5033692;28;20049;-88
2021/05/03 07:19:07;;;;;;;5.18;3.42;;;18.10;99.90;;;;;;5033159;28;20034;-89
2021/05/03 07:21:36;;;;;;;3.15;2.92;;;18.30;99.90;;;;;;5032937;28;20045;-89
2021/05/03 07:24:15;;;;;;;3.03;2.72;;;18.90;99.90;;;;;;5035278;28;20029;-89
2021/05/03 07:26:46;;;;;;;3.05;2.50;;;19.50;99.90;;;;;;5031818;28;20144;-89
2021/05/03 07:29:12;;;;;;;2.50;2.30;;;20.20;96.80;;;;;;5031989;28;20538;-89
2021/05/03 07:31:40;;;;;;;3.92;2.00;;;20.90;96.90;;;;;;5030607;28;20048;-89
2021/05/03 07:34:06;;;;;;;2.88;2.05;;;21.40;93.70;;;;;;5031808;28;20030;-89
2021/05/03 07:36:32;;;;;;;3.05;1.98;;;21.70;81.50;;;;;;5032862;28;20037;-90
2021/05/03 07:38:57;;;;;;;1.60;1.50;;;22.10;84.30;;;;;;5031567;28;20160;-89
2021/05/03 07:41:23;;;;;;;3.17;1.60;;;22.50;84.60;;;;;;5031735;28;20077;-89
2021/05/03 07:43:49;;;;;;;1.45;1.35;;;23.00;84.80;;;;;;5031589;28;20040;-89
2021/05/03 07:46:17;;;;;;;1.83;1.38;;;23.50;78.80;;;;;;5031223;28;20041;-89
2021/05/03 07:48:43;;;;;;;1.50;1.40;;;23.60;76.40;;;;;;5031371;28;20469;-88
2021/05/03 07:51:09;;;;;;;1.40;1.30;;;23.80;74.80;;;;;;5031379;28;20086;-89
2021/05/03 07:53:34;;;;;;;1.42;1.33;;;23.70;71.10;;;;;;5031635;28;20570;-90
2021/05/03 07:56:00;;;;;;;1.75;1.40;;;23.70;71.10;;;;;;5014597;28;20033;-89
2021/05/03 07:58:26;;;;;;;1.30;1.15;;;23.70;69.40;;;;;;5028440;28;20487;-90
2021/05/03 08:00:51;;;;;;;3.88;1.25;;;24.20;73.10;;;;;;5032505;28;20038;-89
2021/05/03 08:03:20;;;;;;;1.33;1.23;;;25.00;75.30;;;;;;5032388;28;20041;-87
2021/05/03 08:05:46;;;;;;;2.75;1.30;;;26.00;73.10;;;;;;5032310;28;20067;-89
2021/05/03 08:08:22;;;;;;;1.52;1.30;;;26.80;69.80;;;;;;5032543;28;20057;-89
2021/05/03 08:11:14;;;;;;;1.30;1.20;;;27.40;69.40;;;;;;5034202;28;20029;-90
2021/05/03 08:13:43;;;;;;;1.30;1.00;;;28.20;63.20;;;;;;5033731;28;20104;-89
2021/05/03 08:16:17;;;;;;;1.35;1.25;;;28.40;65.40;;;;;;5031736;28;20037;-89
2021/05/03 08:19:17;;;;;;;1.77;1.23;;;28.10;59.50;;;;;;5032088;28;20087;-89
2021/05/03 08:21:43;;;;;;;1.10;1.00;;;27.80;54.50;;;;;;5031483;28;20049;-89
2021/05/03 08:24:34;;;;;;;1.25;1.15;;;27.80;65.10;;;;;;5033093;28;20117;-90
2021/05/03 08:27:01;;;;;;;1.23;1.02;;;28.20;57.80;;;;;;5031832;28;20054;-91
2021/05/03 08:29:28;;;;;;;1.25;1.10;;;28.70;63.60;;;;;;5031624;28;20108;-90
2021/05/03 08:31:56;;;;;;;1.15;1.00;;;29.10;61.80;;;;;;5031669;28;20053;-89
2021/05/03 08:34:39;;;;;;;3.63;1.00;;;29.30;61.00;;;;;;5031537;28;20084;-90
2021/05/03 08:37:12;;;;;;;1.33;1.17;;;29.60;54.60;;;;;;5033181;28;20041;-90
2021/05/03 08:39:38;;;;;;;4.28;1.20;;;29.50;56.60;;;;;;5032789;28;20064;-89
2021/05/03 08:42:05;;;;;;;1.27;1.20;;;28.90;54.20;;;;;;5031479;28;20061;-89
2021/05/03 08:44:32;;;;;;;0.90;0.90;;;28.40;55.00;;;;;;5031497;28;20502;-89
2021/05/03 08:46:58;;;;;;;1.60;1.00;;;28.30;56.10;;;;;;5033131;28;20483;-89
2021/05/03 08:54:37;;;;;;;1.00;0.90;;;27.20;52.70;;;;;;5033163;28;20116;-89
2021/05/03 08:57:07;;;;;;;1.20;1.10;;;27.20;55.00;;;;;;5032928;28;20557;-89
2021/05/03 08:59:35;;;;;;;1.17;1.08;;;28.00;54.10;;;;;;5032335;28;20087;-89
2021/05/03 09:02:05;;;;;;;0.88;0.88;;;28.90;54.40;;;;;;5031617;28;20037;-89
2021/05/03 09:04:32;;;;;;;2.47;0.90;;;29.90;54.30;;;;;;5031351;28;20490;-90
2021/05/03 09:07:07;;;;;;;1.63;0.93;;;30.50;52.60;;;;;;5031432;28;20053;-89
2021/05/03 09:09:38;;;;;;;0.88;0.80;;;30.30;48.10;;;;;;5031198;28;20033;-90
2021/05/03 09:12:09;;;;;;;1.00;0.90;;;30.00;48.20;;;;;;5033972;28;20437;-89
2021/05/03 09:14:45;;;;;;;2.45;1.27;;;30.00;50.10;;;;;;5031188;28;20033;-89
2021/05/03 09:17:21;;;;;;;1.10;1.00;;;30.60;50.00;;;;;;5031170;28;20101;-90
2021/05/03 09:19:49;;;;;;;1.13;0.85;;;31.60;51.60;;;;;;5031674;28;20034;-90
2021/05/03 09:22:54;;;;;;;0.80;0.80;;;32.40;51.50;;;;;;5031137;28;20049;-90
2021/05/03 09:25:30;;;;;;;1.05;0.90;;;32.80;46.80;;;;;;5031170;28;20075;-90
2021/05/03 09:28:14;;;;;;;2.58;0.73;;;32.70;48.30;;;;;;5031256;28;20072;-90
2021/05/03 09:30:46;;;;;;;0.80;0.80;;;32.80;46.60;;;;;;5031215;28;20045;-89
2021/05/03 09:33:17;;;;;;;2.33;1.00;;;32.70;46.60;;;;;;5032212;28;20041;-89
2021/05/03 09:35:51;;;;;;;1.15;0.90;;;32.40;45.50;;;;;;5034184;28;20038;-88
2021/05/03 09:38:31;;;;;;;;;;;31.60;44.70;;;;;;5031476;28;20486;-89
2021/05/03 09:41:18;;;;;;;1.73;0.80;;;30.50;43.20;;;;;;5031121;28;19913;-89
2021/05/03 09:43:45;;;;;;;0.93;0.82;;;29.20;44.30;;;;;;5030949;28;20100;-88
2021/05/03 09:46:27;;;;;;;2.05;0.90;;;28.30;45.70;;;;;;5031235;28;20045;-88
2021/05/03 09:49:01;;;;;;;1.27;0.82;;;27.60;46.10;;;;;;5031326;28;20053;-89
2021/05/03 09:51:53;;;;;;;;;;;27.00;46.30;;;;;;5032756;28;20030;-88
2021/05/03 09:54:31;;;;;;;0.90;0.90;;;26.60;47.10;;;;;;5029176;28;19919;-88
2021/05/03 09:57:05;;;;;;;1.80;0.95;;;26.60;47.70;;;;;;5034976;28;20091;-89
2021/05/03 09:59:34;;;;;;;0.77;0.77;;;27.10;46.80;;;;;;5035884;28;20047;-89
2021/05/03 10:02:07;;;;;;;1.50;1.10;;;27.30;45.10;;;;;;5034633;28;20475;-89
2021/05/03 10:04:34;;;;;;;1.20;0.98;;;27.30;44.90;;;;;;5035366;28;20079;-88
2021/05/03 10:07:00;;;;;;;1.10;0.98;;;27.20;45.70;;;;;;5035756;28;20463;-90
2021/05/03 10:09:28;;;;;;;1.23;0.93;;;26.90;45.70;;;;;;5036031;28;20025;-89
2021/05/03 10:11:54;;;;;;;1.00;0.90;;;26.50;44.60;;;;;;5036151;28;20029;-89
2021/05/03 10:14:21;;;;;;;0.90;0.90;;;25.70;45.20;;;;;;5034099;28;20087;-90
2021/05/03 10:16:47;;;;;;;1.38;1.05;;;25.30;46.20;;;;;;5034434;28;20522;-90
2021/05/03 10:19:18;;;;;;;1.70;1.20;;;24.80;46.90;;;;;;5036347;28;20404;-89
2021/05/03 10:21:45;;;;;;;1.63;0.90;;;24.40;47.60;;;;;;5035102;28;20042;-89
2021/05/03 10:24:13;;;;;;;1.15;1.05;;;23.90;47.90;;;;;;5034615;28;20041;-89
2021/05/03 10:26:41;;;;;;;1.50;1.20;;;23.40;48.80;;;;;;5033873;28;20120;-89
2021/05/03 10:29:07;;;;;;;4.15;1.20;;;22.80;49.50;;;;;;5034042;28;20477;-89
2021/05/03 10:32:02;;;;;;;1.67;1.40;;;22.10;50.20;;;;;;5034039;28;20033;-89
2021/05/03 10:34:38;;;;;;;2.17;1.80;;;21.40;50.90;;;;;;5034053;28;20041;-89
2021/05/03 10:37:24;;;;;;;3.25;1.60;;;20.70;52.10;;;;;;5036020;28;20052;-88
2021/05/03 10:39:50;;;;;;;2.30;1.60;;;20.20;52.80;;;;;;5035309;28;20041;-89
2021/05/03 10:42:16;;;;;;;1.70;1.40;;;19.70;53.70;;;;;;5035068;28;20038;-89
2021/05/03 10:45:17;;;;;;;1.42;1.25;;;19.30;54.50;;;;;;5034179;28;20030;-89
2021/05/03 10:47:46;;;;;;;1.63;1.50;;;18.90;55.40;;;;;;5037515;28;20058;-89
2021/05/03 10:50:25;;;;;;;1.70;1.40;;;18.60;56.60;;;;;;5035715;28;20044;-89
2021/05/03 10:52:52;;;;;;;1.50;1.40;;;18.40;57.90;;;;;;5033675;28;20041;-89
2021/05/03 10:55:18;;;;;;;2.28;1.48;;;18.10;58.00;;;;;;5035108;28;20037;-90
2021/05/03 10:58:00;;;;;;;2.47;1.25;;;17.80;58.30;;;;;;5035552;28;20053;-89
2021/05/03 11:00:33;;;;;;;2.50;1.45;;;17.60;59.10;;;;;;5034535;28;20115;-89
2021/05/03 11:03:00;;;;;;;1.40;1.30;;;17.30;59.70;;;;;;5033476;28;20044;-90
2021/05/03 11:05:28;;;;;;;3.53;1.50;;;17.10;60.00;;;;;;5032365;28;20553;-89
2021/05/03 11:08:07;;;;;;;1.70;1.60;;;16.90;60.80;;;;;;5033080;28;20139;-90
2021/05/03 11:10:57;;;;;;;1.60;1.50;;;16.70;61.20;;;;;;5034334;28;20520;-91
2021/05/03 11:13:49;;;;;;;1.80;1.70;;;16.60;61.70;;;;;;5033074;28;20037;-89
2021/05/03 11:18:55;;;;;;;2.08;1.30;;;16.20;62.40;;;;;;5034292;28;20036;-89
2021/05/03 11:21:41;;;;;;;2.13;1.20;;;16.00;62.50;;;;;;5033537;28;20043;-89
2021/05/03 11:24:19;;;;;;;1.40;1.30;;;15.80;62.70;;;;;;5033295;28;20041;-88
2021/05/03 11:26:55;;;;;;;1.20;1.10;;;15.60;63.30;;;;;;5034863;28;20075;-89
2021/05/03 11:29:24;;;;;;;1.70;1.20;;;15.40;64.10;;;;;;5033279;28;20046;-89
2021/05/03 11:31:50;;;;;;;1.20;1.10;;;15.30;65.20;;;;;;5033464;28;20033;-89
2021/05/03 11:34:28;;;;;;;3.30;1.50;;;15.20;65.50;;;;;;5034893;28;20060;-90
2021/05/03 11:37:01;;;;;;;1.58;1.23;;;15.00;66.80;;;;;;5041843;28;20040;-88
2021/05/03 11:44:56;;;;;;;2.35;1.30;;;15.40;67.30;;;;;;5034747;28;20037;-89
2021/05/03 11:47:34;;;;;;;1.50;1.40;;;15.40;67.40;;;;;;5033847;28;20084;-88
2021/05/03 11:50:00;;;;;;;2.38;1.42;;;15.60;67.50;;;;;;5033464;28;20048;-88
2021/05/03 11:52:31;;;;;;;2.05;1.50;;;15.90;67.80;;;;;;5032409;28;20039;-89
2021/05/03 11:55:12;;;;;;;2.10;1.77;;;16.20;67.70;;;;;;5032855;28;20034;-89
2021/05/03 11:57:49;;;;;;;3.60;1.35;;;16.50;66.50;;;;;;5032193;28;20033;-88
2021/05/03 12:00:18;;;;;;;1.70;1.60;;;16.60;65.70;;;;;;5032285;28;20561;-89
2021/05/03 12:02:47;;;;;;;2.00;1.60;;;16.80;66.00;;;;;;5031976;28;20045;-90
2021/05/03 12:05:18;;;;;;;2.55;1.77;;;17.20;66.20;;;;;;5033097;28;20029;-89
2021/05/03 12:07:45;;;;;;;2.20;1.60;;;17.70;64.10;;;;;;5032174;28;20089;-89
2021/05/03 12:10:11;;;;;;;1.60;1.33;;;17.90;62.90;;;;;;5032366;28;20466;-90
2021/05/03 12:12:38;;;;;;;1.52;1.20;;;18.60;64.20;;;;;;5031983;28;20034;-90
2021/05/03 12:15:10;;;;;;;2.47;1.70;;;19.60;63.20;;;;;;5032040;28;20065;-89
2021/05/03 12:17:36;;;;;;;2.95;2.60;;;20.90;62.30;;;;;;5032947;28;20548;-87
2021/05/03 12:20:09;;;;;;;3.45;2.00;;;22.40;60.20;;;;;;5033075;28;20025;-87
2021/05/03 12:22:49;;;;;;;;;;;;;;;;;;;;;
2021/05/03 12:25:18;;;;;;;2.33;2.13;;;23.00;53.60;;;;;;5034893;28;20026;-86
2021/05/03 12:27:50;;;;;;;2.13;1.70;;;23.30;54.10;;;;;;5032810;28;20054;-91
2021/05/03 12:30:17;;;;;;;1.67;1.23;;;23.30;51.50;;;;;;5032116;28;20041;-87
2021/05/03 12:32:43;;;;;;;1.30;1.20;;;23.00;49.70;;;;;;5031590;28;20034;-88
2021/05/03 12:35:22;;;;;;;1.67;1.17;;;23.00;51.30;;;;;;5031979;28;20041;-88
2021/05/03 12:37:47;;;;;;;0.82;0.82;;;23.70;48.30;;;;;;5033138;28;20072;-89
2021/05/03 12:40:15;;;;;;;1.20;0.90;;;24.70;49.40;;;;;;5033012;28;20037;-87
2021/05/03 12:42:48;;;;;;;2.47;0.63;;;25.30;46.90;;;;;;5032809;28;20045;-87
2021/05/03 12:45:14;;;;;;;0.80;0.65;;;25.40;45.60;;;;;;5031968;28;20536;-88
2021/05/03 12:50:37;;;;;;;0.50;0.50;;;25.60;43.60;;;;;;5033047;28;20040;-89
2021/05/03 12:55:44;;;;;;;0.80;0.80;;;26.50;44.90;;;;;;5033128;28;20037;-87
2021/05/03 12:58:16;;;;;;;2.28;0.70;;;27.10;43.70;;;;;;5031710;28;20043;-88
2021/05/03 13:00:56;;;;;;;0.80;0.80;;;27.80;43.40;;;;;;5031627;28;20034;-88
2021/05/03 13:03:47;;;;;;;1.13;0.70;;;28.30;41.70;;;;;;5032754;28;20085;-88
2021/05/03 13:29:02;;;;;;;0.70;0.70;;;29.10;37.40;;;;;;5033390;28;20056;-88
2021/05/03 13:31:29;;;;;;;1.10;0.85;;;29.30;36.60;;;;;;5035845;28;20045;-88
2021/05/03 13:33:56;;;;;;;2.50;0.60;;;29.00;36.70;;;;;;5037693;28;20068;-88
2021/05/03 13:36:22;;;;;;;0.80;0.80;;;28.90;36.40;;;;;;5039162;28;20121;-89
2021/05/03 13:38:49;;;;;;;2.05;0.60;;;28.70;36.60;;;;;;5036108;28;20067;-88
2021/05/03 13:41:16;;;;;;;1.02;0.90;;;28.40;35.10;;;;;;5036453;28;20147;-89
2021/05/03 13:43:41;;;;;;;1.98;0.60;;;28.30;36.40;;;;;;5034813;28;20041;-89
2021/05/03 13:46:07;;;;;;;2.30;0.70;;;28.90;36.30;;;;;;5034966;28;20044;-89
2021/05/03 13:48:33;;;;;;;1.95;0.50;;;29.20;35.60;;;;;;5035066;28;20049;-88
2021/05/03 13:50:59;;;;;;;0.50;0.50;;;29.40;35.10;;;;;;5035422;28;20045;-89
2021/05/03 13:53:25;;;;;;;1.10;0.60;;;29.10;34.40;;;;;;5035947;28;20471;-88
2021/05/03 13:55:54;;;;;;;0.85;0.60;;;28.80;34.10;;;;;;5036045;28;20057;-89
2021/05/03 13:58:20;;;;;;;0.60;0.60;;;28.50;34.10;;;;;;5034345;28;20128;-88
2021/05/03 14:00:45;;;;;;;2.72;0.70;;;28.30;34.80;;;;;;5034526;28;20033;-88
2021/05/03 14:03:11;;;;;;;1.05;0.57;;;28.30;34.40;;;;;;5034879;28;20037;-88
2021/05/03 14:05:39;;;;;;;0.80;0.80;;;28.00;34.20;;;;;;5034687;28;20164;-88
2021/05/03 14:08:05;;;;;;;0.70;0.70;;;27.70;34.10;;;;;;5035066;28;20136;-88
2021/05/03 14:10:31;;;;;;;0.65;0.65;;;27.40;34.70;;;;;;5034070;28;20192;-88
2021/05/03 14:12:57;;;;;;;0.70;0.63;;;27.00;34.30;;;;;;5034742;28;20030;-88
2021/05/03 14:15:24;;;;;;;2.50;1.33;;;26.40;34.80;;;;;;5035689;28;20034;-88